LGAVLGKR

Guest
Details From LGAV - Athens Intl Airport Elefterios Venizel
To LGKR - IOANNIS KAPODISTRIAS INTL
Flight Number -
Tags generated
Created
Modified
Stats Distance 214 nm / 396 km
Max Altitude 0 ft / 0 m
Waypoints 2
Social Downloads 1
Likes 0
Share VATSIM

Download

Looking for another format? Having issues loading an existing format? Contact us
Advertisement - Login to hide

Notes

Basic altitude profile: - Ascent Rate: 2500ft/min - Ascent Speed: 190kts - Cruise Altitude: 8000ft - Cruise Speed: 210kts - Descent Rate: 1500ft/min - Descent Speed: 210kts Options: - Use NATs: no - Use PACOTS: no - Use low airways: no - Use high airways: no

Route

LGAV LGKR

ID Type Via Altitude Latitude Longitude Leg Dist Tot Dist Heading (true) Name
O LGAV APT - 0 ft / 0 m 37.93636˚ 23.94447˚ - 0 nm - Athens Intl Airport Elefterios Venizel
O LGKR APT - 0 ft / 0 m 39.60178˚ 19.91191˚ 213 nm 213 nm 299° / 297° IOANNIS KAPODISTRIAS INTL

Altitude Profile

Advertisement - Login to hide

Weather


0- 5 10 15 20 25 30 35+ Temperature / ° C

Clouds and Precipitation
Forecast for 2018-06-25 00:00 UTC. Updated 5 hours ago

Ground ~20,000 ft ~40,000 ft Winds

LGAV

Details ICAO LGAV (ATH)
Name Athens Intl Airport Elefterios Venizel
Region Greece
Timezone Europe/Athens (UTC+3.0)
Stats Elevation 308 ft / 94 m (AMSL)
Location 37.936357° 23.944470°
Runways 2
Magnetic Variation 4.535° E

METAR

LGAV 250150Z 04005KT 010V080 9999 FEW025 20/13 Q1013 NOSIG

Decode

TAF

TAF TAF LGAV 242300Z 2500/2524 02015KT 9999 SCT025 BKN070 TEMPO 2500/2515 02015G25KT PROB30 TEMPO 2509/2518 5000 TSRA FEW018CB SCT025 BKN070 BECMG 2519/2521 32010KT

Decode

Departure Runways

ID Width Length Bearing (true) Bearing (mag) Surface Threshold Offset Overrun Length
03L 148 ft / 45 m 12,474 ft / 3,802 m 36.51° 31.97° Asphalt 984 ft / 300 m 393 ft / 120 m
03R 148 ft / 45 m 13,131 ft / 4,002 m 36.52° 31.98° Asphalt 984 ft / 300 m 393 ft / 120 m
21L 148 ft / 45 m 13,131 ft / 4,002 m 216.54° 212.00° Asphalt 984 ft / 300 m 393 ft / 120 m
21R 148 ft / 45 m 12,474 ft / 3,802 m 216.53° 211.99° Asphalt 984 ft / 300 m 393 ft / 120 m

LGKR

Details ICAO LGKR (CFU)
Name IOANNIS KAPODISTRIAS INTL
Region Greece
Timezone Europe/Athens (UTC+3.0)
Stats Elevation 6 ft / 2 m (AMSL)
Location 39.601779° 19.911908°
Runways 1
Magnetic Variation 4.151° E

METAR

LGKR 250150Z 28002KT 9999 SCT025 BKN070 19/15 Q1011 NOSIG

Decode

TAF

TAF LGKR 242300Z 2500/2524 12012KT 9999 FEW020 SCT080 PROB30 TEMPO 2500/2524 5000 RA SCT015 BKN070 PROB40 TEMPO 2506/2524 3000 TSRA SCT010 FEW018CB SCT025 BKN070 BECMG 2522/2524 35008KT

Decode

Destination Runways

ID Width Length Bearing (true) Bearing (mag) Surface Threshold Offset Overrun Length
17 148 ft / 45 m 7,815 ft / 2,382 m 168.81° 164.66° Asphalt 1,348 ft / 411 m 0 ft / 0 m
35 148 ft / 45 m 7,815 ft / 2,382 m 348.81° 344.66° Asphalt 213 ft / 65 m 0 ft / 0 m

Popular Alternatives